Time;durP1;ratioP1;P1;durP2;ratioP2;P2;SDS_P1;SDS_P2;PMS_P1;PMS_P2;Temp;Humidity;BMP_temperature;BMP_pressure;BME280_temperature;BME280_humidity;BME280_pressure;Samples;Min_cycle;Max_cycle;Signal;HPM_P1;HPM_P2
2021/07/14 00:00:27;;;;;;;0.15;0.15;;;;;;;;;;4831766;29;20038;-90
2021/07/14 00:02:54;;;;;;;0.10;0.10;;;;;;;;;;4830511;29;20136;-91
2021/07/14 00:05:21;;;;;;;0.10;0.10;;;;;;;;;;4846758;29;20045;-90
2021/07/14 00:07:48;;;;;;;0.65;0.65;;;;;;;;;;4831515;29;20049;-90
2021/07/14 00:10:15;;;;;;;0.20;0.20;;;;;;;;;;4831392;29;20049;-91
2021/07/14 00:23:32;;;;;;;0.20;0.20;;;;;;;;;;4848923;29;20057;-90
2021/07/14 00:25:59;;;;;;;0.30;0.30;;;;;;;;;;4831315;29;20041;-90
2021/07/14 00:28:25;;;;;;;0.20;0.20;;;;;;;;;;4830923;29;20042;-89
2021/07/14 00:31:01;;;;;;;0.20;0.20;;;;;;;;;;4846319;29;20098;-90
2021/07/14 00:33:28;;;;;;;0.13;0.13;;;;;;;;;;4832173;29;20048;-90
2021/07/14 00:35:55;;;;;;;0.20;0.20;;;;;;;;;;4846041;29;20502;-91
2021/07/14 00:38:24;;;;;;;0.20;0.20;;;;;;;;;;4831333;29;20436;-89
2021/07/14 00:40:50;;;;;;;0.30;0.30;;;;;;;;;;4846316;29;20406;-90
2021/07/14 00:43:16;;;;;;;0.10;0.10;;;;;;;;;;4815538;29;20045;-90
2021/07/14 00:45:42;;;;;;;0.10;0.10;;;;;;;;;;4846277;29;20046;-91
2021/07/14 00:48:08;;;;;;;0.45;0.40;;;;;;;;;;4830743;29;20046;-91
2021/07/14 00:50:35;;;;;;;0.38;0.38;;;;;;;;;;4830501;29;20098;-89
2021/07/14 00:53:01;;;;;;;0.20;0.20;;;;;;;;;;4845501;29;20198;-89
2021/07/14 00:55:27;;;;;;;0.10;0.10;;;;;;;;;;4830427;29;20487;-89
2021/07/14 00:57:53;;;;;;;0.22;0.20;;;;;;;;;;4845665;29;20060;-91
2021/07/14 01:00:19;;;;;;;0.32;0.32;;;;;;;;;;4830732;29;20451;-91
2021/07/14 01:02:45;;;;;;;0.40;0.40;;;;;;;;;;4846037;29;20513;-93
2021/07/14 01:05:11;;;;;;;0.20;0.20;;;;;;;;;;4815358;29;20045;-91
2021/07/14 01:07:39;;;;;;;0.70;0.70;;;;;;;;;;4846106;29;20034;-91
2021/07/14 01:10:06;;;;;;;0.25;0.25;;;;;;;;;;4830811;29;20065;-92
2021/07/14 01:12:51;;;;;;;0.30;0.30;;;;;;;;;;4830919;29;20045;-92
2021/07/14 01:15:18;;;;;;;0.20;0.20;;;;;;;;;;4831295;29;20088;-92
2021/07/14 01:17:45;;;;;;;0.35;0.35;;;;;;;;;;4830766;29;20125;-92
2021/07/14 01:20:18;;;;;;;0.10;0.10;;;;;;;;;;4830532;29;20046;-91
2021/07/14 01:22:46;;;;;;;0.20;0.20;;;;;;;;;;4845316;29;20498;-92
2021/07/14 01:25:30;;;;;;;0.15;0.15;;;;;;;;;;4830438;29;20041;-91
2021/07/14 01:27:58;;;;;;;0.20;0.20;;;;;;;;;;4845349;29;20038;-90
2021/07/14 01:30:24;;;;;;;1.45;1.30;;;;;;;;;;4830147;29;20125;-90
2021/07/14 01:32:50;;;;;;;0.10;0.10;;;;;;;;;;4830269;29;20577;-90
2021/07/14 01:35:20;;;;;;;0.20;0.20;;;;;;;;;;4829974;29;20050;-90
2021/07/14 01:37:46;;;;;;;0.47;0.47;;;;;;;;;;4830086;29;20046;-89
2021/07/14 01:40:19;;;;;;;0.20;0.20;;;;;;;;;;4831582;29;20045;-91
2021/07/14 01:42:45;;;;;;;0.20;0.20;;;;;;;;;;4830155;29;20039;-90
2021/07/14 01:45:12;;;;;;;0.10;0.10;;;;;;;;;;4830343;29;20126;-90
2021/07/14 01:47:38;;;;;;;0.20;0.20;;;;;;;;;;4830013;29;20046;-90
2021/07/14 01:50:05;;;;;;;0.85;0.85;;;;;;;;;;4829806;29;20256;-91
2021/07/14 01:52:32;;;;;;;0.20;0.20;;;;;;;;;;4830546;29;20109;-93
2021/07/14 01:54:59;;;;;;;0.10;0.10;;;;;;;;;;4830483;29;20073;-88
2021/07/14 01:57:27;;;;;;;0.20;0.20;;;;;;;;;;4844479;29;20084;-89
2021/07/14 01:59:55;;;;;;;0.10;0.10;;;;;;;;;;4829756;29;20045;-90
2021/07/14 02:02:24;;;;;;;0.20;0.20;;;;;;;;;;4829840;29;20490;-91
2021/07/14 02:04:50;;;;;;;0.20;0.20;;;;;;;;;;4829862;29;20052;-88
2021/07/14 02:07:17;;;;;;;0.20;0.20;;;;;;;;;;4844507;29;20492;-90
2021/07/14 02:09:44;;;;;;;0.20;0.20;;;;;;;;;;4829645;29;20045;-89
2021/07/14 02:12:12;;;;;;;0.50;0.50;;;;;;;;;;4814093;29;20057;-89
2021/07/14 02:14:39;;;;;;;0.70;0.68;;;;;;;;;;4829364;29;20136;-90
2021/07/14 02:17:12;;;;;;;0.20;0.20;;;;;;;;;;4829514;29;20422;-89
2021/07/14 02:19:38;;;;;;;0.10;0.10;;;;;;;;;;4829034;29;20056;-89
2021/07/14 02:22:04;;;;;;;0.65;0.65;;;;;;;;;;4828609;29;20052;-90
2021/07/14 02:24:31;;;;;;;2.80;0.85;;;;;;;;;;4811204;29;20053;-91
2021/07/14 02:27:04;;;;;;;0.20;0.20;;;;;;;;;;4811006;29;20054;-91
2021/07/14 02:29:30;;;;;;;0.35;0.30;;;;;;;;;;4797146;29;20085;-93
2021/07/14 02:31:56;;;;;;;0.35;0.32;;;;;;;;;;4826130;29;20065;-89
2021/07/14 02:34:22;;;;;;;0.95;0.30;;;;;;;;;;4811124;29;20049;-91
2021/07/14 02:36:49;;;;;;;0.20;0.20;;;;;;;;;;4796036;29;20054;-90
2021/07/14 02:39:15;;;;;;;0.20;0.20;;;;;;;;;;4826260;29;20068;-90
2021/07/14 02:41:46;;;;;;;0.30;0.30;;;;;;;;;;4811524;29;20041;-92
2021/07/14 02:44:13;;;;;;;0.10;0.10;;;;;;;;;;4811910;29;20037;-91
2021/07/14 02:46:41;;;;;;;0.52;0.52;;;;;;;;;;4811350;29;20058;-92
2021/07/14 02:49:08;;;;;;;0.30;0.30;;;;;;;;;;4811277;29;20081;-91
2021/07/14 02:51:34;;;;;;;0.20;0.20;;;;;;;;;;4795938;29;20106;-91
2021/07/14 02:54:01;;;;;;;0.30;0.30;;;;;;;;;;4811026;29;20042;-91
2021/07/14 02:56:27;;;;;;;0.13;0.13;;;;;;;;;;4811048;29;20121;-91
2021/07/14 02:59:03;;;;;;;0.20;0.20;;;;;;;;;;4811323;29;20046;-92
2021/07/14 03:01:30;;;;;;;0.30;0.30;;;;;;;;;;4811627;29;20050;-90
2021/07/14 03:03:56;;;;;;;0.10;0.10;;;;;;;;;;4811124;29;20038;-92
2021/07/14 03:06:22;;;;;;;1.00;0.73;;;;;;;;;;4810763;29;20073;-89
2021/07/14 03:08:49;;;;;;;0.10;0.10;;;;;;;;;;4826056;29;20487;-91
2021/07/14 03:11:16;;;;;;;0.22;0.22;;;;;;;;;;4810471;29;20062;-90
2021/07/14 03:13:43;;;;;;;0.50;0.50;;;;;;;;;;4826081;29;20380;-91
2021/07/14 03:16:10;;;;;;;0.20;0.20;;;;;;;;;;4803763;29;20042;-92
2021/07/14 03:18:36;;;;;;;0.20;0.20;;;;;;;;;;4825784;29;20479;-91
2021/07/14 03:21:02;;;;;;;0.20;0.20;;;;;;;;;;4795688;29;20057;-89
2021/07/14 03:23:29;;;;;;;0.82;0.82;;;;;;;;;;4821873;29;20137;-90
2021/07/14 03:25:55;;;;;;;0.10;0.10;;;;;;;;;;4828895;29;20405;-91
2021/07/14 03:28:21;;;;;;;1.05;0.30;;;;;;;;;;4829855;29;20049;-92
2021/07/14 03:30:47;;;;;;;0.20;0.20;;;;;;;;;;4832374;29;20053;-91
2021/07/14 03:33:14;;;;;;;0.10;0.10;;;;;;;;;;4832160;29;20045;-91
2021/07/14 03:35:40;;;;;;;0.20;0.20;;;;;;;;;;4847375;29;20044;-90
2021/07/14 03:38:09;;;;;;;0.20;0.20;;;;;;;;;;4831734;29;20398;-91
2021/07/14 03:40:35;;;;;;;0.47;0.47;;;;;;;;;;4817329;29;20387;-91
2021/07/14 03:43:02;;;;;;;0.20;0.20;;;;;;;;;;4832295;29;20052;-90
2021/07/14 03:45:29;;;;;;;0.10;0.10;;;;;;;;;;4832147;29;20097;-91
2021/07/14 03:47:55;;;;;;;0.17;0.17;;;;;;;;;;4831812;29;20037;-90
2021/07/14 03:50:22;;;;;;;0.10;0.10;;;;;;;;;;4831888;29;20053;-92
2021/07/14 03:52:48;;;;;;;0.20;0.20;;;;;;;;;;4847205;29;20113;-90
2021/07/14 03:55:15;;;;;;;0.20;0.20;;;;;;;;;;4831640;29;20065;-91
2021/07/14 03:57:41;;;;;;;0.20;0.20;;;;;;;;;;4817358;29;20049;-91
2021/07/14 04:00:08;;;;;;;0.20;0.20;;;;;;;;;;4831722;29;20041;-91
2021/07/14 04:02:36;;;;;;;0.20;0.20;;;;;;;;;;4832024;29;20141;-91
2021/07/14 04:05:03;;;;;;;0.10;0.10;;;;;;;;;;4832355;29;20041;-93
2021/07/14 04:07:32;;;;;;;0.20;0.20;;;;;;;;;;4833082;29;20033;-92
2021/07/14 04:09:58;;;;;;;0.10;0.10;;;;;;;;;;4831381;29;20486;-92
2021/07/14 04:12:24;;;;;;;0.20;0.20;;;;;;;;;;4831502;29;20084;-91
2021/07/14 04:14:51;;;;;;;0.10;0.10;;;;;;;;;;4831432;29;20060;-91
2021/07/14 04:17:19;;;;;;;0.45;0.35;;;;;;;;;;4831731;29;20041;-93
2021/07/14 04:19:45;;;;;;;0.20;0.20;;;;;;;;;;4846599;29;20072;-91
2021/07/14 04:22:12;;;;;;;0.20;0.20;;;;;;;;;;4846580;29;20129;-93
2021/07/14 04:24:38;;;;;;;0.20;0.20;;;;;;;;;;4831701;29;20041;-90
2021/07/14 04:27:04;;;;;;;0.20;0.20;;;;;;;;;;4831282;29;20443;-91
2021/07/14 04:29:30;;;;;;;0.10;0.10;;;;;;;;;;4831265;29;20490;-92
2021/07/14 04:31:57;;;;;;;0.15;0.15;;;;;;;;;;4831330;29;20057;-92
2021/07/14 04:34:23;;;;;;;0.10;0.10;;;;;;;;;;4846646;29;20046;-91
2021/07/14 04:36:49;;;;;;;0.17;0.17;;;;;;;;;;4831401;29;20041;-90
2021/07/14 04:39:15;;;;;;;0.20;0.20;;;;;;;;;;4830852;29;20045;-93
2021/07/14 04:41:41;;;;;;;0.88;0.65;;;;;;;;;;4830660;29;20042;-92
2021/07/14 04:44:10;;;;;;;0.10;0.10;;;;;;;;;;4831378;29;20052;-92
2021/07/14 04:46:36;;;;;;;0.10;0.10;;;;;;;;;;4846079;29;20041;-90
2021/07/14 04:49:02;;;;;;;0.10;0.10;;;;;;;;;;4831012;29;20084;-92
2021/07/14 04:51:28;;;;;;;0.10;0.10;;;;;;;;;;4831027;29;20048;-92
2021/07/14 04:53:55;;;;;;;0.40;0.40;;;;;;;;;;4846916;29;20094;-95
2021/07/14 04:56:21;;;;;;;0.10;0.10;;;;;;;;;;4817159;29;20049;-92
2021/07/14 04:58:50;;;;;;;0.30;0.30;;;;;;;;;;4831836;29;20159;-93
2021/07/14 05:01:16;;;;;;;0.55;0.55;;;;;;;;;;4831643;29;20038;-91
2021/07/14 05:03:46;;;;;;;0.20;0.20;;;;;;;;;;4831428;29;20041;-91
2021/07/14 05:06:12;;;;;;;0.15;0.15;;;;;;;;;;4816631;29;20046;-94
2021/07/14 05:08:38;;;;;;;0.50;0.50;;;;;;;;;;4830985;29;20049;-92
2021/07/14 05:11:04;;;;;;;0.20;0.20;;;;;;;;;;4830600;29;20045;-91
2021/07/14 05:13:31;;;;;;;0.10;0.10;;;;;;;;;;4831112;29;20071;-91
2021/07/14 05:15:58;;;;;;;0.20;0.20;;;;;;;;;;4846318;29;20042;-89
2021/07/14 05:18:24;;;;;;;0.17;0.17;;;;;;;;;;4830942;29;20041;-92
2021/07/14 05:20:50;;;;;;;0.20;0.20;;;;;;;;;;4830687;29;20073;-92
2021/07/14 05:23:16;;;;;;;0.20;0.20;;;;;;;;;;4830821;29;20066;-93
2021/07/14 05:25:42;;;;;;;0.30;0.30;;;;;;;;;;4829104;29;20492;-92
2021/07/14 05:28:09;;;;;;;0.43;0.20;;;;;;;;;;4822713;29;20041;-91
2021/07/14 05:30:37;;;;;;;0.45;0.30;;;;;;;;;;4821339;29;20050;-93
2021/07/14 05:33:08;;;;;;;1.17;0.43;;;;;;;;;;4846501;29;20038;-92
2021/07/14 05:35:34;;;;;;;0.15;0.15;;;;;;;;;;4845637;29;20158;-94
2021/07/14 05:38:00;;;;;;;0.30;0.30;;;;;;;;;;4814743;29;20069;-93
2021/07/14 05:40:26;;;;;;;0.20;0.20;;;;;;;;;;4845590;29;20072;-94
2021/07/14 05:42:53;;;;;;;0.38;0.38;;;;;;;;;;4830530;29;20033;-94
2021/07/14 05:45:24;;;;;;;1.30;1.05;;;;;;;;;;4816416;29;20061;-92
2021/07/14 05:47:50;;;;;;;0.20;0.20;;;;;;;;;;4829993;29;20064;-92
2021/07/14 05:50:16;;;;;;;0.38;0.38;;;;;;;;;;4830187;29;20486;-95
2021/07/14 05:52:42;;;;;;;0.20;0.20;;;;;;;;;;4814951;29;20404;-93
2021/07/14 05:55:10;;;;;;;0.20;0.20;;;;;;;;;;4830227;29;20045;-92
2021/07/14 05:57:37;;;;;;;0.20;0.20;;;;;;;;;;4845625;29;20041;-92
2021/07/14 06:00:08;;;;;;;0.30;0.30;;;;;;;;;;4815363;29;20133;-92
2021/07/14 06:02:34;;;;;;;0.40;0.40;;;;;;;;;;4830091;29;20474;-92
2021/07/14 06:05:00;;;;;;;0.43;0.43;;;;;;;;;;4830159;29;20045;-92
2021/07/14 06:07:26;;;;;;;0.20;0.20;;;;;;;;;;4829779;29;20045;-91
2021/07/14 06:09:53;;;;;;;0.68;0.68;;;;;;;;;;4814524;29;20094;-92
2021/07/14 06:12:19;;;;;;;0.10;0.10;;;;;;;;;;4844939;29;20046;-92
2021/07/14 06:14:47;;;;;;;0.20;0.20;;;;;;;;;;4829708;29;20402;-93
2021/07/14 06:17:13;;;;;;;0.20;0.20;;;;;;;;;;4830165;29;20132;-93
2021/07/14 06:19:39;;;;;;;0.43;0.35;;;;;;;;;;4829836;29;20072;-92
2021/07/14 06:22:06;;;;;;;0.20;0.20;;;;;;;;;;4829259;29;20041;-90
2021/07/14 06:24:38;;;;;;;0.20;0.20;;;;;;;;;;4829829;29;20121;-92
2021/07/14 06:27:04;;;;;;;0.10;0.10;;;;;;;;;;4844455;29;20041;-91
2021/07/14 06:29:30;;;;;;;0.20;0.20;;;;;;;;;;4814039;29;20598;-95
2021/07/14 06:31:58;;;;;;;0.20;0.20;;;;;;;;;;4829637;29;20042;-90
2021/07/14 06:34:27;;;;;;;0.28;0.28;;;;;;;;;;4829050;29;20041;-91
2021/07/14 06:36:53;;;;;;;0.20;0.20;;;;;;;;;;4844080;29;20052;-92
2021/07/14 06:39:19;;;;;;;0.20;0.20;;;;;;;;;;4845527;29;20047;-94
2021/07/14 06:41:45;;;;;;;0.20;0.20;;;;;;;;;;4829859;29;20038;-94
2021/07/14 06:44:11;;;;;;;0.20;0.20;;;;;;;;;;4815211;29;20045;-92
2021/07/14 06:46:38;;;;;;;0.10;0.10;;;;;;;;;;4815067;29;20081;-93
2021/07/14 06:49:04;;;;;;;0.22;0.22;;;;;;;;;;4829858;29;20073;-92
2021/07/14 06:51:30;;;;;;;0.28;0.28;;;;;;;;;;4815121;29;20065;-92
2021/07/14 06:53:57;;;;;;;0.20;0.20;;;;;;;;;;4815703;29;20490;-93
2021/07/14 06:56:23;;;;;;;0.10;0.10;;;;;;;;;;4829274;29;20451;-95
2021/07/14 06:58:49;;;;;;;0.10;0.10;;;;;;;;;;4813731;29;20501;-95
2021/07/14 07:01:16;;;;;;;0.28;0.28;;;;;;;;;;4829596;29;20049;-89
2021/07/14 07:03:43;;;;;;;0.95;0.38;;;;;;;;;;4843278;29;20072;-92
2021/07/14 07:06:09;;;;;;;0.35;0.35;;;;;;;;;;4843878;29;20094;-91
2021/07/14 07:08:36;;;;;;;0.45;0.45;;;;;;;;;;4843965;29;20069;-94
2021/07/14 07:11:02;;;;;;;0.52;0.52;;;;;;;;;;4814662;29;20045;-94
2021/07/14 07:13:28;;;;;;;0.20;0.20;;;;;;;;;;4828132;29;20072;-92
2021/07/14 07:15:55;;;;;;;0.20;0.20;;;;;;;;;;4829049;29;20135;-91
2021/07/14 07:18:21;;;;;;;0.20;0.20;;;;;;;;;;4828644;29;20154;-91
2021/07/14 07:20:48;;;;;;;0.22;0.20;;;;;;;;;;4843646;29;20049;-90
2021/07/14 07:23:14;;;;;;;0.20;0.20;;;;;;;;;;4828027;29;20064;-91
2021/07/14 07:25:41;;;;;;;0.15;0.15;;;;;;;;;;4828386;29;20128;-90
2021/07/14 07:28:13;;;;;;;0.20;0.20;;;;;;;;;;4828362;29;20417;-90
2021/07/14 07:30:39;;;;;;;0.20;0.20;;;;;;;;;;4829399;29;20049;-90
2021/07/14 07:33:05;;;;;;;0.30;0.30;;;;;;;;;;4828166;29;20038;-91
2021/07/14 07:35:31;;;;;;;0.10;0.10;;;;;;;;;;4828333;29;20054;-90
2021/07/14 07:37:57;;;;;;;0.55;0.55;;;;;;;;;;4843444;29;20042;-91
2021/07/14 07:40:23;;;;;;;0.20;0.20;;;;;;;;;;4828320;29;20087;-90
2021/07/14 07:42:50;;;;;;;0.20;0.20;;;;;;;;;;4843470;29;20068;-89
2021/07/14 07:45:16;;;;;;;0.63;0.20;;;;;;;;;;4843165;29;20126;-91
2021/07/14 07:47:43;;;;;;;0.10;0.10;;;;;;;;;;4828421;29;20057;-90
2021/07/14 07:50:09;;;;;;;0.20;0.20;;;;;;;;;;4828355;29;20045;-91
2021/07/14 07:52:36;;;;;;;0.63;0.60;;;;;;;;;;4828773;29;20048;-93
2021/07/14 07:55:03;;;;;;;0.30;0.30;;;;;;;;;;4828853;29;20057;-93
2021/07/14 07:57:29;;;;;;;0.85;0.35;;;;;;;;;;4813458;29;20081;-94
2021/07/14 07:59:56;;;;;;;0.43;0.43;;;;;;;;;;4828665;29;20126;-94
2021/07/14 08:02:22;;;;;;;0.20;0.20;;;;;;;;;;4843773;29;20045;-92
2021/07/14 08:04:48;;;;;;;0.80;0.80;;;;;;;;;;4829045;29;20097;-95
2021/07/14 08:07:14;;;;;;;0.20;0.20;;;;;;;;;;4844007;29;20487;-94
2021/07/14 08:09:40;;;;;;;0.30;0.30;;;;;;;;;;4828919;29;20547;-95
2021/07/14 08:12:07;;;;;;;1.67;0.50;;;;;;;;;;4843972;29;20487;-92
2021/07/14 08:14:33;;;;;;;0.20;0.20;;;;;;;;;;4844713;29;20041;-94
2021/07/14 08:17:02;;;;;;;0.20;0.20;;;;;;;;;;4818526;29;20117;-94
2021/07/14 08:19:28;;;;;;;0.40;0.40;;;;;;;;;;4831725;29;20046;-93
2021/07/14 08:21:54;;;;;;;0.70;0.38;;;;;;;;;;4831512;29;20058;-91
2021/07/14 08:24:20;;;;;;;0.30;0.22;;;;;;;;;;4830861;29;20185;-92
2021/07/14 08:26:46;;;;;;;0.40;0.40;;;;;;;;;;4831341;29;20064;-96
2021/07/14 08:29:13;;;;;;;0.20;0.20;;;;;;;;;;4817893;29;20053;-92
2021/07/14 08:31:40;;;;;;;0.17;0.17;;;;;;;;;;4846622;29;20079;-93
2021/07/14 08:34:06;;;;;;;0.20;0.20;;;;;;;;;;4831821;29;20041;-90
2021/07/14 08:36:32;;;;;;;0.20;0.20;;;;;;;;;;4816253;29;20053;-92
2021/07/14 08:38:58;;;;;;;0.25;0.25;;;;;;;;;;4816248;29;20113;-90
2021/07/14 08:41:25;;;;;;;0.10;0.10;;;;;;;;;;4815851;29;20049;-91
2021/07/14 08:43:52;;;;;;;0.20;0.20;;;;;;;;;;4845980;29;20486;-90
2021/07/14 08:46:19;;;;;;;0.40;0.40;;;;;;;;;;4830679;29;20045;-91
2021/07/14 08:48:47;;;;;;;0.65;0.60;;;;;;;;;;4831087;29;20072;-90
2021/07/14 08:51:14;;;;;;;0.10;0.10;;;;;;;;;;4832795;29;20038;-92
2021/07/14 08:53:40;;;;;;;0.20;0.20;;;;;;;;;;4831064;29;20045;-93
2021/07/14 08:56:06;;;;;;;0.20;0.20;;;;;;;;;;4831264;29;20041;-91
2021/07/14 08:58:32;;;;;;;0.20;0.20;;;;;;;;;;4830862;29;20178;-92
2021/07/14 09:00:59;;;;;;;0.20;0.20;;;;;;;;;;4845477;29;20427;-90
2021/07/14 09:03:25;;;;;;;0.63;0.63;;;;;;;;;;4815307;29;20046;-88
2021/07/14 09:05:51;;;;;;;0.10;0.10;;;;;;;;;;4845431;29;20041;-88
2021/07/14 09:08:17;;;;;;;0.30;0.30;;;;;;;;;;4845519;29;20037;-90
2021/07/14 09:10:46;;;;;;;0.20;0.20;;;;;;;;;;4845629;29;20048;-90
2021/07/14 09:13:13;;;;;;;0.20;0.20;;;;;;;;;;4830721;29;20045;-89
2021/07/14 09:15:40;;;;;;;0.40;0.40;;;;;;;;;;4829388;29;20064;-90
2021/07/14 09:18:06;;;;;;;0.63;0.55;;;;;;;;;;4830048;29;20041;-89
2021/07/14 09:20:32;;;;;;;0.20;0.20;;;;;;;;;;4830143;29;20093;-90
2021/07/14 09:23:02;;;;;;;0.50;0.50;;;;;;;;;;4830121;29;20354;-90
2021/07/14 09:25:28;;;;;;;0.45;0.45;;;;;;;;;;4830604;29;20390;-91
2021/07/14 09:27:58;;;;;;;0.20;0.20;;;;;;;;;;4829863;29;20072;-90
2021/07/14 09:30:26;;;;;;;0.10;0.10;;;;;;;;;;4830830;29;20068;-94
2021/07/14 09:32:59;;;;;;;0.10;0.10;;;;;;;;;;4831310;29;20057;-92
2021/07/14 09:35:47;;;;;;;0.10;0.10;;;;;;;;;;4829987;29;20185;-90
2021/07/14 09:38:13;;;;;;;0.13;0.13;;;;;;;;;;4861710;29;20033;-90
2021/07/14 09:40:41;;;;;;;0.20;0.20;;;;;;;;;;4845174;29;20073;-90
2021/07/14 09:43:14;;;;;;;0.40;0.40;;;;;;;;;;4830241;29;20068;-90
2021/07/14 09:45:48;;;;;;;0.20;0.20;;;;;;;;;;4844998;29;20037;-90
2021/07/14 09:48:15;;;;;;;0.10;0.10;;;;;;;;;;4829407;29;20089;-91
2021/07/14 09:50:51;;;;;;;0.20;0.20;;;;;;;;;;4846367;29;20057;-90
2021/07/14 09:53:19;;;;;;;0.10;0.10;;;;;;;;;;4844664;29;20052;-90
2021/07/14 09:55:46;;;;;;;1.20;0.40;;;;;;;;;;4830187;29;20084;-91
2021/07/14 09:58:13;;;;;;;0.10;0.10;;;;;;;;;;4814457;29;20045;-90
2021/07/14 10:00:59;;;;;;;0.20;0.20;;;;;;;;;;4844882;29;20120;-92
2021/07/14 10:03:33;;;;;;;0.40;0.40;;;;;;;;;;4829508;29;20420;-91
2021/07/14 10:06:02;;;;;;;0.20;0.20;;;;;;;;;;4831415;29;20041;-91
2021/07/14 10:08:28;;;;;;;0.25;0.25;;;;;;;;;;4848400;29;20186;-91
2021/07/14 10:11:16;;;;;;;0.20;0.20;;;;;;;;;;4837913;29;20477;-94
2021/07/14 10:13:52;;;;;;;0.15;0.15;;;;;;;;;;4845265;29;20056;-91
2021/07/14 10:16:19;;;;;;;0.60;0.60;;;;;;;;;;4829613;29;20053;-93
2021/07/14 10:18:56;;;;;;;0.22;0.22;;;;;;;;;;4815121;29;20395;-92
2021/07/14 10:21:24;;;;;;;0.20;0.20;;;;;;;;;;4830836;29;20041;-90
2021/07/14 10:23:52;;;;;;;0.30;0.30;;;;;;;;;;4846465;29;20088;-90
2021/07/14 10:26:21;;;;;;;0.50;0.50;;;;;;;;;;4829927;29;20053;-90
2021/07/14 10:28:48;;;;;;;0.20;0.20;;;;;;;;;;4829664;29;20045;-91
2021/07/14 10:31:14;;;;;;;0.40;0.40;;;;;;;;;;4847843;29;20076;-94
2021/07/14 10:33:40;;;;;;;0.10;0.10;;;;;;;;;;4830585;29;20041;-91
2021/07/14 10:36:07;;;;;;;0.47;0.40;;;;;;;;;;4829924;29;20068;-93
2021/07/14 10:38:33;;;;;;;0.32;0.32;;;;;;;;;;4829115;29;20067;-92
2021/07/14 10:40:59;;;;;;;0.20;0.20;;;;;;;;;;4814199;29;20050;-93
2021/07/14 10:43:26;;;;;;;0.90;0.68;;;;;;;;;;4814165;29;20136;-90
2021/07/14 10:45:53;;;;;;;0.20;0.20;;;;;;;;;;4829015;29;20041;-91
2021/07/14 10:48:40;;;;;;;0.20;0.20;;;;;;;;;;4816577;29;20057;-96
2021/07/14 10:51:07;;;;;;;0.30;0.30;;;;;;;;;;4830225;29;20057;-94
2021/07/14 10:53:34;;;;;;;0.20;0.20;;;;;;;;;;4829491;29;20045;-94
2021/07/14 10:56:00;;;;;;;0.20;0.20;;;;;;;;;;4814610;29;20132;-92
2021/07/14 10:58:30;;;;;;;0.25;0.25;;;;;;;;;;4829782;29;20438;-93
2021/07/14 11:00:59;;;;;;;0.68;0.60;;;;;;;;;;4829384;29;20443;-92
2021/07/14 11:03:33;;;;;;;0.28;0.28;;;;;;;;;;4830558;29;20053;-96
2021/07/14 11:06:03;;;;;;;0.45;0.45;;;;;;;;;;4830328;29;20095;-93
2021/07/14 11:08:55;;;;;;;0.68;0.68;;;;;;;;;;4814977;29;20442;-95
2021/07/14 11:11:21;;;;;;;0.32;0.32;;;;;;;;;;4829390;29;20073;-94
2021/07/14 11:14:04;;;;;;;0.40;0.20;;;;;;;;;;4814907;29;20054;-93
2021/07/14 11:16:41;;;;;;;0.73;0.63;;;;;;;;;;4813920;29;20057;-93
2021/07/14 11:19:08;;;;;;;0.60;0.60;;;;;;;;;;4829317;29;20053;-93
2021/07/14 11:21:52;;;;;;;1.42;0.43;;;;;;;;;;4844024;29;20045;-92
2021/07/14 11:24:37;;;;;;;0.28;0.28;;;;;;;;;;4844033;29;20057;-93
2021/07/14 11:27:23;;;;;;;0.30;0.30;;;;;;;;;;4844236;29;20046;-93
2021/07/14 11:29:50;;;;;;;0.20;0.20;;;;;;;;;;4844127;29;20041;-94
2021/07/14 11:32:38;;;;;;;0.20;0.20;;;;;;;;;;4829307;29;20070;-91
2021/07/14 11:35:13;;;;;;;0.60;0.60;;;;;;;;;;4846172;29;20394;-93
2021/07/14 11:37:45;;;;;;;0.50;0.50;;;;;;;;;;4829279;29;20053;-93
2021/07/14 11:40:21;;;;;;;0.32;0.32;;;;;;;;;;4829011;29;20499;-94
2021/07/14 11:43:00;;;;;;;0.63;0.63;;;;;;;;;;4828771;29;20387;-93
2021/07/14 11:45:26;;;;;;;0.35;0.32;;;;;;;;;;4829327;29;20505;-92
2021/07/14 11:48:02;;;;;;;0.20;0.20;;;;;;;;;;4860354;29;20046;-94
2021/07/14 11:50:46;;;;;;;0.75;0.60;;;;;;;;;;4847456;29;20050;-94
2021/07/14 11:53:34;;;;;;;0.40;0.40;;;;;;;;;;4832535;29;20148;-90
2021/07/14 11:56:00;;;;;;;0.20;0.20;;;;;;;;;;4833056;29;20049;-96
2021/07/14 11:58:45;;;;;;;0.60;0.60;;;;;;;;;;4847430;29;20048;-93
2021/07/14 12:01:17;;;;;;;0.20;0.20;;;;;;;;;;4848038;29;20116;-94
2021/07/14 12:03:59;;;;;;;0.13;0.13;;;;;;;;;;4832479;29;20418;-93
2021/07/14 12:06:35;;;;;;;0.20;0.20;;;;;;;;;;4863712;29;20512;-94
2021/07/14 12:09:13;;;;;;;0.93;0.93;;;;;;;;;;4837601;29;20045;-96
2021/07/14 12:12:17;;;;;;;0.30;0.30;;;;;;;;;;4834298;29;20061;-95
2021/07/14 12:14:45;;;;;;;0.32;0.22;;;;;;;;;;4766102;29;20068;-95
2021/07/14 12:17:17;;;;;;;0.20;0.20;;;;;;;;;;4842893;29;20127;-95
2021/07/14 12:19:44;;;;;;;0.20;0.20;;;;;;;;;;4845315;29;20078;-94
2021/07/14 12:22:35;;;;;;;0.20;0.20;;;;;;;;;;4835910;29;20064;-94
2021/07/14 12:25:14;;;;;;;0.20;0.20;;;;;;;;;;4827380;29;20279;-95
2021/07/14 12:28:04;;;;;;;0.20;0.20;;;;;;;;;;4846311;29;20046;-94
2021/07/14 12:30:40;;;;;;;0.20;0.20;;;;;;;;;;4882279;24;20066;-95
2021/07/14 12:33:07;;;;;;;0.20;0.20;;;;;;;;;;4806551;29;20137;-93
2021/07/14 12:35:58;;;;;;;0.30;0.30;;;;;;;;;;4837577;29;20070;-95
2021/07/14 12:38:29;;;;;;;0.20;0.20;;;;;;;;;;4851618;29;20049;-96
2021/07/14 12:40:57;;;;;;;0.32;0.32;;;;;;;;;;4842438;29;20479;-96
2021/07/14 12:47:16;;;;;;;0.30;0.30;;;;;;;;;;4870714;29;20053;-94
2021/07/14 12:49:57;;;;;;;0.65;0.65;;;;;;;;;;4841327;29;20053;-96
2021/07/14 12:52:23;;;;;;;0.20;0.20;;;;;;;;;;4854315;29;20064;-92
2021/07/14 12:54:55;;;;;;;0.45;0.40;;;;;;;;;;4834211;29;20474;-96
2021/07/14 12:57:30;;;;;;;0.63;0.63;;;;;;;;;;4834727;29;20058;-95
2021/07/14 12:59:58;;;;;;;0.25;0.25;;;;;;;;;;4849415;29;20055;-96
2021/07/14 13:02:48;;;;;;;0.20;0.20;;;;;;;;;;4835476;29;20053;-95
2021/07/14 13:05:18;;;;;;;0.20;0.20;;;;;;;;;;4838902;29;20053;-94
2021/07/14 13:07:52;;;;;;;0.28;0.22;;;;;;;;;;4865771;29;20038;-94
2021/07/14 13:10:35;;;;;;;0.10;0.10;;;;;;;;;;4811818;29;20049;-95
2021/07/14 13:13:04;;;;;;;0.20;0.20;;;;;;;;;;4836841;29;20204;-94
2021/07/14 13:15:30;;;;;;;0.20;0.20;;;;;;;;;;4817831;29;20060;-96
2021/07/14 13:18:02;;;;;;;0.20;0.20;;;;;;;;;;4818100;29;20079;-96
2021/07/14 13:20:28;;;;;;;0.83;0.50;;;;;;;;;;4831341;29;20050;-94
2021/07/14 13:23:03;;;;;;;0.30;0.30;;;;;;;;;;4832440;29;20061;-94
2021/07/14 13:25:37;;;;;;;0.38;0.38;;;;;;;;;;4814954;29;20054;-95
2021/07/14 13:28:13;;;;;;;0.25;0.25;;;;;;;;;;4814597;29;20050;-94
2021/07/14 13:30:40;;;;;;;0.50;0.50;;;;;;;;;;4814013;29;20510;-96
2021/07/14 13:33:16;;;;;;;0.20;0.20;;;;;;;;;;4811651;29;20078;-95
2021/07/14 13:36:06;;;;;;;0.20;0.20;;;;;;;;;;4804982;29;20099;-95
2021/07/14 13:38:37;;;;;;;0.20;0.20;;;;;;;;;;4803468;29;20045;-94
2021/07/14 13:41:12;;;;;;;0.20;0.20;;;;;;;;;;4803396;29;20141;-94
2021/07/14 13:43:44;;;;;;;0.20;0.20;;;;;;;;;;4815923;29;20076;-94
2021/07/14 13:46:20;;;;;;;0.30;0.30;;;;;;;;;;4834162;29;20454;-95
2021/07/14 13:49:01;;;;;;;0.20;0.20;;;;;;;;;;4816779;29;20057;-94
2021/07/14 13:51:31;;;;;;;0.20;0.20;;;;;;;;;;4815071;29;20041;-95
2021/07/14 13:53:58;;;;;;;0.20;0.20;;;;;;;;;;4798575;29;20451;-95
2021/07/14 13:56:31;;;;;;;0.20;0.20;;;;;;;;;;4801185;29;20418;-95
2021/07/14 13:59:25;;;;;;;0.20;0.20;;;;;;;;;;4830136;29;20145;-96
2021/07/14 14:02:10;;;;;;;0.25;0.25;;;;;;;;;;4815535;29;20077;-96
2021/07/14 14:04:47;;;;;;;0.22;0.22;;;;;;;;;;4797972;29;20130;-95
2021/07/14 14:07:16;;;;;;;0.30;0.30;;;;;;;;;;4828313;29;20042;-94
2021/07/14 14:09:51;;;;;;;0.20;0.20;;;;;;;;;;4828930;29;20045;-96
2021/07/14 14:12:18;;;;;;;0.10;0.10;;;;;;;;;;4812166;29;20435;-96
2021/07/14 14:14:44;;;;;;;0.20;0.20;;;;;;;;;;4813019;29;20045;-96
2021/07/14 14:17:11;;;;;;;0.20;0.20;;;;;;;;;;4799732;29;20469;-94
2021/07/14 14:19:37;;;;;;;0.20;0.20;;;;;;;;;;4798427;29;20042;-93
2021/07/14 14:22:06;;;;;;;0.28;0.28;;;;;;;;;;4799428;29;20133;-94
2021/07/14 14:24:33;;;;;;;0.30;0.30;;;;;;;;;;4819297;29;20030;-95
2021/07/14 14:27:05;;;;;;;0.20;0.20;;;;;;;;;;4817211;29;20099;-94
2021/07/14 14:29:36;;;;;;;0.22;0.22;;;;;;;;;;4802219;29;20091;-95
2021/07/14 14:32:10;;;;;;;0.20;0.20;;;;;;;;;;4818227;29;20061;-96
2021/07/14 14:34:43;;;;;;;0.28;0.28;;;;;;;;;;4817560;29;20056;-94
2021/07/14 14:37:09;;;;;;;0.20;0.20;;;;;;;;;;4816641;29;20049;-96
2021/07/14 14:39:42;;;;;;;0.20;0.20;;;;;;;;;;4817110;29;20061;-95
2021/07/14 14:42:13;;;;;;;0.10;0.10;;;;;;;;;;4817320;29;20045;-93
2021/07/14 14:44:42;;;;;;;0.20;0.20;;;;;;;;;;4820767;29;20049;-96
2021/07/14 14:47:08;;;;;;;0.20;0.20;;;;;;;;;;4833723;29;20513;-96
2021/07/14 14:49:35;;;;;;;0.20;0.20;;;;;;;;;;4835344;29;20478;-94
2021/07/14 14:52:08;;;;;;;0.57;0.57;;;;;;;;;;4834635;29;20057;-93
2021/07/14 14:54:34;;;;;;;0.10;0.10;;;;;;;;;;4815058;29;20060;-93
2021/07/14 14:57:05;;;;;;;0.20;0.20;;;;;;;;;;4834662;29;20057;-94
2021/07/14 14:59:31;;;;;;;0.20;0.20;;;;;;;;;;4816877;29;20080;-95
2021/07/14 15:01:58;;;;;;;0.20;0.20;;;;;;;;;;4830331;29;20042;-93
2021/07/14 15:04:25;;;;;;;0.17;0.17;;;;;;;;;;4815370;29;20562;-92
2021/07/14 15:06:53;;;;;;;0.22;0.22;;;;;;;;;;4830096;29;20053;-96
2021/07/14 15:09:19;;;;;;;0.30;0.30;;;;;;;;;;4816107;29;20113;-93